createdAt,value
2018-03-22T00:01:39.355Z,10.70
2018-03-22T00:04:07.761Z,9.20
2018-03-22T00:06:35.388Z,10.17
2018-03-22T00:09:03.029Z,9.87
2018-03-22T00:11:30.669Z,11.17
2018-03-22T00:13:58.292Z,10.20
2018-03-22T00:16:26.657Z,11.13
2018-03-22T00:18:54.276Z,9.53
2018-03-22T00:21:21.896Z,18.23
2018-03-22T00:23:50.303Z,11.10
2018-03-22T00:26:17.947Z,13.80
2018-03-22T00:28:45.543Z,9.30
2018-03-22T00:33:58.246Z,9.30
2018-03-22T00:36:25.861Z,8.80
2018-03-22T00:38:53.492Z,12.93
2018-03-22T00:41:21.125Z,11.23
2018-03-22T00:43:48.743Z,8.63
2018-03-22T00:46:16.389Z,10.73
2018-03-22T00:48:43.980Z,11.57
2018-03-22T00:51:12.600Z,11.13
2018-03-22T00:53:40.183Z,11.40
2018-03-22T00:56:07.834Z,13.07
2018-03-22T00:58:35.436Z,9.93
2018-03-22T01:01:03.025Z,10.00
2018-03-22T01:03:30.632Z,11.00
2018-03-22T01:05:58.237Z,13.93
2018-03-22T01:08:25.863Z,9.97
2018-03-22T01:10:53.468Z,12.67
2018-03-22T01:13:21.100Z,10.57
2018-03-22T01:15:49.452Z,16.30
2018-03-22T01:18:17.080Z,12.83
2018-03-22T01:20:44.685Z,16.53
2018-03-22T01:23:12.277Z,11.67
2018-03-22T01:25:40.664Z,17.67
2018-03-22T01:28:08.289Z,11.27
2018-03-22T01:30:39.400Z,14.93
2018-03-22T01:33:07.004Z,13.30
2018-03-22T01:35:35.412Z,16.93
2018-03-22T01:38:02.991Z,14.53
2018-03-22T01:40:30.602Z,12.27
2018-03-22T01:42:58.955Z,16.03
2018-03-22T01:45:26.613Z,13.63
2018-03-22T01:47:54.204Z,17.13
2018-03-22T01:50:22.612Z,19.73
2018-03-22T01:53:01.858Z,21.20
2018-03-22T01:55:29.482Z,11.23
2018-03-22T01:57:57.834Z,11.17
2018-03-22T02:00:25.446Z,12.10
2018-03-22T02:02:53.021Z,14.10
2018-03-22T02:05:20.661Z,11.83
2018-03-22T02:07:48.279Z,10.50
2018-03-22T02:10:15.877Z,11.63
2018-03-22T02:12:43.501Z,10.70
2018-03-22T02:15:11.096Z,12.87
2018-03-22T02:17:38.718Z,11.93
2018-03-22T02:20:06.301Z,12.60
2018-03-22T02:22:34.672Z,14.30
2018-03-22T02:25:03.045Z,12.13
2018-03-22T02:27:31.423Z,12.90
2018-03-22T02:29:59.902Z,12.33
2018-03-22T02:32:28.293Z,14.17
2018-03-22T02:34:56.673Z,20.00
2018-03-22T02:37:24.288Z,15.63
2018-03-22T02:39:51.891Z,17.50
2018-03-22T02:42:20.266Z,16.87
2018-03-22T02:44:48.640Z,18.20
2018-03-22T02:47:17.019Z,16.63
2018-03-22T02:49:45.402Z,16.03
2018-03-22T02:52:13.777Z,16.90
2018-03-22T02:54:42.153Z,15.60
2018-03-22T02:57:10.547Z,17.43
2018-03-22T02:59:38.133Z,18.73
2018-03-22T03:02:05.742Z,17.27
2018-03-22T03:04:34.157Z,18.77
2018-03-22T03:07:01.772Z,18.97
2018-03-22T03:09:29.390Z,14.80
2018-03-22T03:11:56.994Z,17.30
2018-03-22T03:14:24.628Z,16.30
2018-03-22T03:16:52.249Z,19.43
2018-03-22T03:19:19.869Z,16.57
2018-03-22T03:21:47.511Z,17.93
2018-03-22T03:24:15.114Z,17.57
2018-03-22T03:26:43.494Z,20.10
2018-03-22T03:29:11.868Z,14.90
2018-03-22T03:31:40.226Z,14.60
2018-03-22T03:34:07.856Z,16.50
2018-03-22T03:36:35.476Z,17.90
2018-03-22T03:39:03.106Z,22.17
2018-03-22T03:41:30.727Z,16.10
2018-03-22T03:43:58.317Z,16.97
2018-03-22T03:46:25.940Z,17.47
2018-03-22T03:48:53.540Z,21.63
2018-03-22T03:51:21.157Z,16.47
2018-03-22T03:53:48.748Z,15.93
2018-03-22T03:56:16.357Z,16.27
2018-03-22T03:58:43.963Z,17.90
2018-03-22T04:01:11.574Z,13.47
2018-03-22T04:03:39.917Z,13.67
2018-03-22T04:06:07.525Z,17.30
2018-03-22T04:08:35.113Z,16.33
2018-03-22T04:11:02.743Z,21.07
2018-03-22T04:13:30.342Z,15.07
2018-03-22T04:15:57.953Z,15.50
2018-03-22T04:18:26.345Z,13.97
2018-03-22T04:20:53.948Z,21.33
2018-03-22T04:23:21.608Z,17.93
2018-03-22T04:25:49.216Z,15.10
2018-03-22T04:28:16.825Z,22.00
2018-03-22T04:30:44.431Z,22.53
2018-03-22T04:33:12.816Z,18.30
2018-03-22T04:35:40.485Z,11.20
2018-03-22T04:38:08.848Z,15.10
2018-03-22T04:40:37.237Z,17.40
2018-03-22T04:43:04.840Z,23.50
2018-03-22T04:45:32.431Z,23.50
2018-03-22T04:48:00.062Z,17.97
2018-03-22T04:50:27.660Z,21.60
2018-03-22T04:52:56.010Z,18.67
2018-03-22T04:55:24.696Z,23.53
2018-03-22T04:57:52.278Z,21.17
2018-03-22T05:00:19.927Z,20.27
2018-03-22T05:02:47.522Z,24.50
2018-03-22T05:05:15.150Z,25.50
2018-03-22T05:07:42.747Z,23.70
2018-03-22T05:10:10.374Z,18.57
2018-03-22T05:12:38.729Z,25.13
2018-03-22T05:15:06.362Z,34.30
2018-03-22T05:17:33.949Z,28.57
2018-03-22T05:20:01.566Z,23.03
2018-03-22T05:22:29.175Z,30.77
2018-03-22T05:24:56.821Z,25.37
2018-03-22T05:27:24.420Z,23.97
2018-03-22T05:29:52.802Z,27.20
2018-03-22T05:32:21.164Z,21.17
2018-03-22T05:34:48.754Z,22.93
2018-03-22T05:37:16.383Z,27.37
2018-03-22T05:39:43.976Z,18.43
2018-03-22T05:42:11.676Z,26.83
2018-03-22T05:44:39.282Z,35.70
2018-03-22T05:47:07.655Z,26.83
2018-03-22T05:49:36.014Z,21.07
2018-03-22T05:52:03.631Z,28.90
2018-03-22T05:54:31.222Z,33.33
2018-03-22T05:56:59.636Z,28.53
2018-03-22T05:59:28.009Z,20.70
2018-03-22T06:01:56.356Z,29.23
2018-03-22T06:04:23.978Z,26.17
2018-03-22T06:06:51.561Z,24.53
2018-03-22T06:09:19.184Z,33.90
2018-03-22T06:11:46.781Z,24.67
2018-03-22T06:14:14.413Z,26.30
2018-03-22T06:16:42.200Z,22.27
2018-03-22T06:19:09.887Z,24.53
2018-03-22T06:21:37.484Z,28.23
2018-03-22T06:24:05.886Z,22.07
2018-03-22T06:26:33.481Z,17.80
2018-03-22T06:29:01.095Z,32.73
2018-03-22T06:31:28.707Z,26.10
2018-03-22T06:33:56.376Z,21.40
2018-03-22T06:36:23.978Z,22.73
2018-03-22T06:38:51.615Z,23.57
2018-03-22T06:41:19.984Z,24.13
2018-03-22T06:43:48.329Z,21.00
2018-03-22T06:46:15.928Z,21.53
2018-03-22T06:48:44.276Z,22.27
2018-03-22T06:51:11.885Z,21.13
2018-03-22T06:53:39.463Z,12.47
2018-03-22T06:56:07.113Z,16.00
2018-03-22T06:58:34.710Z,15.60
2018-03-22T07:01:03.103Z,13.17
2018-03-22T07:03:30.688Z,13.00
2018-03-22T07:05:59.065Z,15.73
2018-03-22T07:08:27.440Z,27.03
2018-03-22T07:10:55.832Z,16.67
2018-03-22T07:13:23.430Z,15.70
2018-03-22T07:15:51.066Z,15.33
2018-03-22T07:18:18.659Z,13.50
2018-03-22T07:20:47.005Z,15.83
2018-03-22T07:23:14.616Z,16.50
2018-03-22T07:25:42.247Z,14.63
2018-03-22T07:28:09.856Z,16.30
2018-03-22T07:30:38.206Z,14.30
2018-03-22T07:33:05.821Z,12.60
2018-03-22T07:35:33.417Z,10.73
2018-03-22T07:38:01.035Z,16.77
2018-03-22T07:40:28.621Z,97.33
2018-03-22T07:43:01.832Z,74.93
2018-03-22T07:45:29.437Z,21.57
2018-03-22T07:47:57.099Z,14.77
2018-03-22T07:50:24.699Z,25.43
2018-03-22T07:52:52.330Z,21.50
2018-03-22T07:55:19.964Z,20.77
2018-03-22T07:57:48.321Z,27.63
2018-03-22T08:00:15.944Z,21.03
2018-03-22T08:02:43.540Z,18.47
2018-03-22T08:05:11.164Z,19.97
2018-03-22T08:07:38.759Z,20.10
2018-03-22T08:10:06.444Z,22.20
2018-03-22T08:12:34.817Z,27.63
2018-03-22T08:15:03.246Z,28.27
2018-03-22T08:17:30.828Z,28.83
2018-03-22T08:19:59.678Z,21.93
2018-03-22T08:22:28.123Z,24.27
2018-03-22T08:24:56.501Z,22.80
2018-03-22T08:27:24.080Z,19.23
2018-03-22T08:29:52.491Z,19.53
2018-03-22T08:32:20.078Z,23.73
2018-03-22T08:34:47.681Z,21.97
2018-03-22T08:37:15.306Z,20.03
2018-03-22T08:39:42.920Z,23.83
2018-03-22T08:42:10.542Z,17.73
2018-03-22T08:44:38.916Z,26.77
2018-03-22T08:47:07.299Z,27.10
2018-03-22T08:49:35.664Z,25.83
2018-03-22T08:52:03.342Z,24.03
2018-03-22T08:54:31.697Z,20.07
2018-03-22T08:56:59.342Z,23.33
2018-03-22T08:59:26.973Z,30.60
2018-03-22T09:01:54.657Z,25.80
2018-03-22T09:04:22.284Z,25.37
2018-03-22T09:06:50.725Z,34.03
2018-03-22T09:09:18.336Z,30.93
2018-03-22T09:11:45.954Z,36.07
2018-03-22T09:14:14.407Z,25.70
2018-03-22T09:16:42.181Z,36.37
2018-03-22T09:19:09.808Z,24.53
2018-03-22T09:21:37.409Z,42.57
2018-03-22T09:24:05.018Z,36.17
2018-03-22T09:29:34.957Z,38.70
2018-03-22T09:32:02.552Z,46.50
2018-03-22T09:34:30.189Z,38.27
2018-03-22T09:36:58.546Z,32.77
2018-03-22T09:39:26.925Z,37.53
2018-03-22T09:41:54.548Z,45.40
2018-03-22T09:44:22.949Z,48.60
2018-03-22T09:46:50.549Z,39.10
2018-03-22T09:49:18.183Z,38.20
2018-03-22T09:51:45.810Z,37.03
2018-03-22T09:54:14.187Z,44.67
2018-03-22T09:56:42.568Z,46.20
2018-03-22T09:59:10.925Z,43.57
2018-03-22T10:01:38.526Z,39.10
2018-03-22T10:04:06.136Z,71.23
2018-03-22T10:06:34.100Z,49.40
2018-03-22T10:09:01.796Z,51.20
2018-03-22T10:11:30.201Z,27.50
2018-03-22T10:13:57.800Z,49.73
2018-03-22T10:16:25.423Z,48.77
2018-03-22T10:18:53.037Z,44.30
2018-03-22T10:21:20.668Z,40.73
2018-03-22T10:23:48.276Z,52.20
2018-03-22T10:26:16.669Z,40.47
2018-03-22T10:28:45.026Z,42.97
2018-03-22T10:31:12.614Z,36.43
2018-03-22T10:33:40.223Z,43.67
2018-03-22T10:36:07.824Z,44.17
2018-03-22T10:38:36.192Z,32.83
2018-03-22T10:41:04.628Z,54.90
2018-03-22T10:43:32.225Z,53.40
2018-03-22T10:45:59.830Z,45.93
2018-03-22T10:48:27.516Z,48.53
2018-03-22T10:50:55.108Z,50.13
2018-03-22T10:53:23.523Z,50.07
2018-03-22T10:55:51.129Z,47.40
2018-03-22T10:58:18.730Z,49.33
2018-03-22T11:00:51.918Z,56.17
2018-03-22T11:03:25.289Z,53.93
2018-03-22T11:05:52.907Z,34.97
2018-03-22T11:08:20.532Z,54.30
2018-03-22T11:10:48.151Z,50.80
2018-03-22T11:13:16.540Z,44.23
2018-03-22T11:15:44.140Z,42.37
2018-03-22T11:18:11.713Z,53.57
2018-03-22T11:20:39.339Z,50.63
2018-03-22T11:23:07.771Z,38.90
2018-03-22T11:25:35.421Z,61.07
2018-03-22T11:28:03.013Z,53.83
2018-03-22T11:30:30.600Z,50.93
2018-03-22T11:32:58.969Z,51.83
2018-03-22T11:35:27.334Z,51.17
2018-03-22T11:37:55.791Z,50.13
2018-03-22T11:40:23.876Z,53.70
2018-03-22T11:42:51.560Z,58.10
2018-03-22T11:45:19.171Z,48.60
2018-03-22T11:47:46.819Z,45.70
2018-03-22T11:50:14.419Z,50.20
2018-03-22T11:52:42.175Z,60.23
2018-03-22T11:55:09.784Z,47.27
2018-03-22T11:57:37.420Z,55.03
2018-03-22T12:00:05.783Z,40.87
2018-03-22T12:02:33.406Z,52.43
2018-03-22T12:05:01.016Z,50.93
2018-03-22T12:07:28.648Z,58.27
2018-03-22T12:09:56.260Z,50.27
2018-03-22T12:12:23.961Z,47.40
2018-03-22T12:14:51.563Z,37.77
2018-03-22T12:17:19.943Z,54.80
2018-03-22T12:19:47.596Z,40.40
2018-03-22T12:22:15.184Z,46.77
2018-03-22T12:24:42.794Z,55.10
2018-03-22T12:27:10.401Z,42.63
2018-03-22T12:29:38.025Z,54.80
2018-03-22T12:32:05.619Z,49.63
2018-03-22T12:34:34.008Z,48.77
2018-03-22T12:37:01.626Z,59.77
2018-03-22T12:39:29.261Z,49.13
2018-03-22T12:41:56.867Z,55.33
2018-03-22T12:44:24.505Z,46.70
2018-03-22T12:46:52.160Z,32.33
2018-03-22T12:49:19.788Z,50.53
2018-03-22T12:51:47.392Z,46.83
2018-03-22T12:54:15.001Z,42.87
2018-03-22T12:56:42.658Z,43.83
2018-03-22T12:59:10.292Z,43.23
2018-03-22T13:01:38.646Z,43.90
2018-03-22T13:04:06.230Z,49.60
2018-03-22T13:06:34.636Z,65.37
2018-03-22T13:09:02.236Z,45.07
2018-03-22T13:11:29.877Z,54.03
2018-03-22T13:13:57.460Z,42.67
2018-03-22T13:16:25.089Z,36.60
2018-03-22T13:18:52.733Z,46.13
2018-03-22T13:21:20.371Z,46.43
2018-03-22T13:23:48.757Z,37.60
2018-03-22T13:26:16.403Z,48.70
2018-03-22T13:28:44.774Z,47.60
2018-03-22T13:31:13.620Z,44.60
2018-03-22T13:33:42.032Z,40.00
2018-03-22T13:36:09.663Z,45.10
2018-03-22T13:38:37.331Z,42.30
2018-03-22T13:41:04.910Z,46.63
2018-03-22T13:43:32.522Z,41.17
2018-03-22T13:46:00.113Z,35.37
2018-03-22T13:48:27.740Z,38.47
2018-03-22T13:50:55.330Z,31.10
2018-03-22T13:53:22.941Z,44.57
2018-03-22T13:55:51.338Z,43.43
2018-03-22T13:58:18.953Z,43.77
2018-03-22T14:00:46.568Z,41.67
2018-03-22T14:03:14.964Z,42.70
2018-03-22T14:05:42.592Z,50.27
2018-03-22T14:08:10.225Z,45.07
2018-03-22T14:10:37.826Z,39.57
2018-03-22T14:13:05.429Z,50.97
2018-03-22T14:15:33.065Z,44.03
2018-03-22T14:18:00.684Z,36.47
2018-03-22T14:20:28.310Z,45.57
2018-03-22T14:22:55.912Z,49.23
2018-03-22T14:25:23.520Z,45.43
2018-03-22T14:27:51.104Z,51.50
2018-03-22T14:30:19.500Z,54.07
2018-03-22T14:32:47.861Z,50.70
2018-03-22T14:35:15.496Z,62.97
2018-03-22T14:37:43.142Z,50.30
2018-03-22T14:40:10.766Z,54.37
2018-03-22T14:42:38.369Z,47.43
2018-03-22T14:45:06.063Z,50.43
2018-03-22T14:47:33.634Z,50.97
2018-03-22T14:50:01.986Z,48.63
2018-03-22T14:52:29.666Z,53.03
2018-03-22T14:54:57.236Z,54.90
2018-03-22T14:57:24.868Z,48.57
2018-03-22T14:59:52.472Z,47.73
2018-03-22T15:02:20.108Z,57.03
2018-03-22T15:04:48.489Z,50.03
2018-03-22T15:07:16.895Z,124.30
2018-03-22T15:09:44.548Z,48.00
2018-03-22T15:12:12.917Z,54.60
2018-03-22T15:14:40.536Z,53.13
2018-03-22T15:17:08.198Z,54.53
2018-03-22T15:19:35.810Z,53.70
2018-03-22T15:22:03.432Z,57.10
2018-03-22T15:24:31.074Z,57.37
2018-03-22T15:26:58.697Z,54.73
2018-03-22T15:29:26.314Z,56.13
2018-03-22T15:31:53.921Z,53.07
2018-03-22T15:34:21.556Z,58.47
2018-03-22T15:36:49.174Z,50.13
2018-03-22T15:39:16.804Z,51.60
2018-03-22T15:41:44.393Z,53.53
2018-03-22T15:44:12.017Z,48.40
2018-03-22T15:46:39.643Z,50.40
2018-03-22T15:49:08.058Z,58.20
2018-03-22T15:51:35.654Z,51.97
2018-03-22T15:54:03.290Z,49.77
2018-03-22T15:56:30.885Z,51.13
2018-03-22T15:58:58.473Z,49.73
2018-03-22T16:01:26.882Z,45.20
2018-03-22T16:03:54.498Z,55.77
2018-03-22T16:06:22.124Z,44.13
2018-03-22T16:08:49.748Z,49.73
2018-03-22T16:11:17.395Z,47.80
2018-03-22T16:13:45.804Z,45.27
2018-03-22T16:16:13.454Z,42.77
2018-03-22T16:18:41.047Z,54.70
2018-03-22T16:21:08.697Z,57.17
2018-03-22T16:23:36.326Z,48.90
2018-03-22T16:26:03.964Z,47.77
2018-03-22T16:28:32.370Z,44.20
2018-03-22T16:31:00.012Z,47.67
2018-03-22T16:33:28.435Z,53.73
2018-03-22T16:35:56.096Z,53.30
2018-03-22T16:38:23.737Z,69.17
2018-03-22T16:40:51.390Z,62.27
2018-03-22T16:43:19.054Z,49.73
2018-03-22T16:45:46.675Z,56.57
2018-03-22T16:48:14.323Z,46.53
2018-03-22T16:50:41.986Z,58.67
2018-03-22T16:53:09.648Z,46.27
2018-03-22T16:55:37.285Z,50.87
2018-03-22T16:58:04.916Z,46.80
2018-03-22T17:00:32.547Z,52.67
2018-03-22T17:03:00.184Z,53.37
2018-03-22T17:05:27.815Z,49.10
2018-03-22T17:07:55.458Z,59.43
2018-03-22T17:10:23.101Z,57.23
2018-03-22T17:12:51.491Z,53.50
2018-03-22T17:15:19.161Z,47.77
2018-03-22T17:17:46.811Z,54.90
2018-03-22T17:20:15.252Z,56.20
2018-03-22T17:22:43.846Z,50.17
2018-03-22T17:25:11.504Z,52.40
2018-03-22T17:27:39.136Z,69.83
2018-03-22T17:30:06.795Z,52.07
2018-03-22T17:32:34.444Z,49.83
2018-03-22T17:35:02.127Z,54.97
2018-03-22T17:37:29.777Z,44.57
2018-03-22T17:39:57.441Z,48.70
2018-03-22T17:42:25.086Z,48.40
2018-03-22T17:44:52.714Z,48.50
2018-03-22T17:47:21.118Z,48.73
2018-03-22T17:49:48.774Z,50.13
2018-03-22T17:52:16.421Z,48.57
2018-03-22T17:54:44.081Z,48.97
2018-03-22T17:57:12.508Z,41.93
2018-03-22T17:59:40.136Z,47.53
2018-03-22T18:02:07.795Z,36.77
2018-03-22T18:04:35.454Z,41.30
2018-03-22T18:07:03.124Z,42.20
2018-03-22T18:09:30.806Z,40.80
2018-03-22T18:11:58.489Z,36.23
2018-03-22T18:14:26.137Z,38.07
2018-03-22T18:16:53.934Z,39.20
2018-03-22T18:19:21.585Z,38.83
2018-03-22T18:21:49.299Z,40.80
2018-03-22T18:24:16.952Z,39.87
2018-03-22T18:26:44.590Z,39.80
2018-03-22T18:29:12.998Z,40.00
2018-03-22T18:31:40.675Z,36.60
2018-03-22T18:34:08.327Z,43.60
2018-03-22T18:36:35.984Z,44.17
2018-03-22T18:39:03.641Z,39.60
2018-03-22T18:41:31.269Z,44.23
2018-03-22T18:43:58.917Z,49.90
2018-03-22T18:46:26.569Z,44.20
2018-03-22T18:48:54.262Z,39.80
2018-03-22T18:51:25.340Z,37.50
2018-03-22T18:53:52.993Z,43.67
2018-03-22T18:56:20.685Z,45.07
2018-03-22T18:58:48.355Z,38.33
2018-03-22T19:01:16.029Z,44.10
2018-03-22T19:03:43.674Z,41.57
2018-03-22T19:06:11.337Z,39.83
2018-03-22T19:08:39.004Z,43.17
2018-03-22T19:11:06.850Z,43.40
2018-03-22T19:13:34.529Z,40.53
2018-03-22T19:16:02.213Z,43.47
2018-03-22T19:18:29.881Z,44.50
2018-03-22T19:20:58.291Z,42.80
2018-03-22T19:23:25.960Z,44.00
2018-03-22T19:25:53.637Z,55.70
2018-03-22T19:28:21.312Z,44.03
2018-03-22T19:30:48.962Z,47.40
2018-03-22T19:33:16.614Z,39.90
2018-03-22T19:35:44.265Z,52.53
2018-03-22T19:38:11.944Z,42.13
2018-03-22T19:40:39.596Z,48.70
2018-03-22T19:43:07.253Z,43.93
2018-03-22T19:45:34.922Z,44.37
2018-03-22T19:48:02.592Z,46.93
2018-03-22T19:50:30.340Z,43.30
2018-03-22T19:52:57.981Z,47.10
2018-03-22T19:55:26.681Z,47.30
2018-03-22T19:57:54.334Z,41.07
2018-03-22T20:00:24.011Z,40.40
2018-03-22T20:02:52.418Z,44.57
2018-03-22T20:05:20.079Z,46.47
2018-03-22T20:07:47.737Z,44.30
2018-03-22T20:10:15.423Z,47.37
2018-03-22T20:12:43.086Z,45.03
2018-03-22T20:15:10.761Z,45.43
2018-03-22T20:17:38.396Z,50.83
2018-03-22T20:20:06.112Z,46.73
2018-03-22T20:22:33.810Z,45.57
2018-03-22T20:25:01.511Z,41.13
2018-03-22T20:27:29.186Z,41.57
2018-03-22T20:29:56.828Z,44.03
2018-03-22T20:32:24.485Z,42.67
2018-03-22T20:34:52.132Z,45.73
2018-03-22T20:37:19.781Z,47.93
2018-03-22T20:39:47.460Z,38.30
2018-03-22T20:42:15.130Z,45.67
2018-03-22T20:44:42.742Z,46.37
2018-03-22T20:47:11.175Z,46.80
2018-03-22T20:49:38.837Z,53.90
2018-03-22T20:52:06.502Z,48.53
2018-03-22T20:54:34.145Z,45.47
2018-03-22T20:57:01.819Z,47.90
2018-03-22T20:59:29.467Z,47.50
2018-03-22T21:01:57.136Z,48.33
2018-03-22T21:04:24.803Z,53.90
2018-03-22T21:06:52.479Z,48.23
2018-03-22T21:09:20.216Z,59.80
2018-03-22T21:11:47.885Z,54.57
2018-03-22T21:14:15.487Z,53.33
2018-03-22T21:16:43.128Z,50.77
2018-03-22T21:19:10.796Z,53.70
2018-03-22T21:21:38.458Z,50.10
2018-03-22T21:24:06.125Z,54.80
2018-03-22T21:26:33.780Z,52.50
2018-03-22T21:29:01.441Z,49.00
2018-03-22T21:31:29.138Z,57.00
2018-03-22T21:33:57.723Z,54.63
2018-03-22T21:36:25.388Z,56.00
2018-03-22T21:38:53.052Z,46.37
2018-03-22T21:41:20.671Z,54.77
2018-03-22T21:44:00.313Z,61.53
2018-03-22T21:46:28.014Z,54.97
2018-03-22T21:48:56.683Z,52.50
2018-03-22T21:51:25.133Z,58.13
2018-03-22T21:53:52.815Z,48.80
2018-03-22T21:56:21.223Z,54.60
2018-03-22T21:58:48.879Z,55.53
2018-03-22T22:01:16.533Z,65.20
2018-03-22T22:03:44.197Z,57.03
2018-03-22T22:06:11.882Z,54.57
2018-03-22T22:08:39.509Z,51.70
2018-03-22T22:11:07.932Z,61.40
2018-03-22T22:13:35.564Z,50.80
2018-03-22T22:16:03.199Z,54.93
2018-03-22T22:18:31.617Z,61.37
2018-03-22T22:20:59.273Z,57.50
2018-03-22T22:23:26.945Z,53.80
2018-03-22T22:25:54.595Z,60.43
2018-03-22T22:28:22.253Z,53.57
2018-03-22T22:30:49.894Z,53.50
2018-03-22T22:33:18.326Z,57.63
2018-03-22T22:35:45.961Z,50.47
2018-03-22T22:38:13.605Z,55.70
2018-03-22T22:40:41.252Z,52.37
2018-03-22T22:43:11.702Z,56.60
2018-03-22T22:45:39.353Z,61.13
2018-03-22T22:48:07.061Z,59.43
2018-03-22T22:50:34.735Z,55.27
2018-03-22T22:53:03.360Z,55.57
2018-03-22T22:55:31.024Z,55.70
2018-03-22T22:57:58.690Z,59.33
2018-03-22T23:00:26.346Z,57.30
2018-03-22T23:02:54.005Z,59.57
2018-03-22T23:05:21.681Z,64.07
2018-03-22T23:07:49.338Z,60.67
2018-03-22T23:10:17.003Z,57.27
2018-03-22T23:12:44.696Z,57.53
2018-03-22T23:15:12.351Z,54.13
2018-03-22T23:17:41.925Z,54.60
2018-03-22T23:20:09.570Z,55.80
2018-03-22T23:22:37.960Z,59.87
2018-03-22T23:25:05.604Z,54.47
2018-03-22T23:27:34.014Z,55.33
2018-03-22T23:30:01.653Z,57.73
2018-03-22T23:32:30.062Z,59.57
2018-03-22T23:34:57.704Z,60.10
2018-03-22T23:37:25.366Z,60.13
2018-03-22T23:39:53.010Z,64.63
2018-03-22T23:42:21.425Z,56.43
2018-03-22T23:44:49.052Z,61.83
2018-03-22T23:47:17.463Z,51.77
2018-03-22T23:49:45.074Z,62.40
2018-03-22T23:52:13.492Z,55.00
2018-03-22T23:54:41.141Z,49.37
2018-03-22T23:57:08.810Z,53.53
2018-03-22T23:59:36.455Z,60.73
